Startpagina
METAR-TAF:

METAR-TAF

Vliegvelden :

Jakoetsk, Rusland

Luchthaven Jakoetsk

breedte: 62-01N, lengte: 129-43E, hoogte: 103 m

Actueel weer

Dit bericht is 37 minuten geleden gemaakt, om 11:30 UTC
Weinig wind
Temperatuur -39°C
Vochtigheid 65%
Druk 1021 hPa
Zicht: 0600 m
mist

METAR: UEEE 191130Z 00000MPS 0600 R23L/1400D FG NSC M39/M43 Q1021 R23L/490150 NOSIG RMK QFE757

Tijdstip: 21:07 (12:07 UTC)

Verwachting

Dit bericht is 1 uur en het 7 minuten geleden gemaakt, om 11:00 UTC
Verwachting geldig van 19 om 12 UTC tot 20 om 18 UTC
Wind 2 kt uit variabele richting
Zicht: 1500 m
Verspreide wolken op 1500 ft
Geheel bewolkt op 7000 ft
lichte sneeuw, nevel
Tijdelijke
van 19 om 12 UTC tot 20 om 01 UTC
Zicht: 0300 m
op 300 ft
mist
Van 20 om 0100 UTC
Wind 6 kt uit het westnoordwesten met uitschieters tot 16 kt
Zicht: 3200 m
Gebroken wolken op 1500 ft
Geheel bewolkt op 7000 ft
lichte sneeuw

TAF: UEEE 191100Z 1912/2018 VRB01MPS 1500 -SN BR SCT015 OVC070 TEMPO 1912/2001 0300 FG VV003 FM200100 30003G08MPS 3200 -SN BKN015 OVC070

Waarnemingen en weersverwachtingen van meer dan 4000 vliegvelden (METAR en TAF).

De beschikbare stations zijn de gele en rode punten op de kaart.

Ga met uw muis naar het station om de naam te zien.

Klik dan om waarnemingen en weersverwachtingen te zien.

kaart wijzigen: klik op de groene knoppen met een zwart kruis om in te zoomen, op de groene knop met een streepje om uit te zoomen of op de groene pijlen voor aangrenzende kaarten.


METAR-TAF: